sensor_id;sensor_type;location;lat;lon;timestamp;pressure;altitude;pressure_sealevel;temperature;humidity
57568;BME280;43403;51.948;5.922;2022-08-19T00:01:35;101303.72;;;20.01;100.00
57568;BME280;43403;51.948;5.922;2022-08-19T00:12:02;101303.88;;;19.93;100.00
57568;BME280;43403;51.948;5.922;2022-08-19T00:14:29;101300.16;;;19.87;100.00
57568;BME280;43403;51.948;5.922;2022-08-19T00:16:59;101307.31;;;19.87;100.00
57568;BME280;43403;51.948;5.922;2022-08-19T00:19:26;101298.28;;;19.81;100.00
57568;BME280;43403;51.948;5.922;2022-08-19T00:21:53;101298.69;;;19.78;100.00
57568;BME280;43403;51.948;5.922;2022-08-19T00:24:20;101307.06;;;19.75;100.00
57568;BME280;43403;51.948;5.922;2022-08-19T00:26:46;101300.63;;;19.69;100.00
57568;BME280;43403;51.948;5.922;2022-08-19T00:29:15;101295.91;;;19.65;100.00
57568;BME280;43403;51.948;5.922;2022-08-19T00:31:44;101292.00;;;19.61;100.00
57568;BME280;43403;51.948;5.922;2022-08-19T00:34:11;101300.16;;;19.59;100.00
57568;BME280;43403;51.948;5.922;2022-08-19T00:36:39;101285.59;;;19.55;100.00
57568;BME280;43403;51.948;5.922;2022-08-19T00:39:07;101291.13;;;19.53;100.00
57568;BME280;43403;51.948;5.922;2022-08-19T00:41:34;101286.56;;;19.47;100.00
57568;BME280;43403;51.948;5.922;2022-08-19T00:44:12;101297.84;;;19.49;100.00
57568;BME280;43403;51.948;5.922;2022-08-19T00:46:43;101290.47;;;19.45;100.00
57568;BME280;43403;51.948;5.922;2022-08-19T00:49:34;101303.50;;;19.40;100.00
57568;BME280;43403;51.948;5.922;2022-08-19T00:52:07;101303.31;;;19.41;100.00
57568;BME280;43403;51.948;5.922;2022-08-19T00:54:36;101304.91;;;19.35;100.00
57568;BME280;43403;51.948;5.922;2022-08-19T00:57:06;101301.81;;;19.32;100.00
57568;BME280;43403;51.948;5.922;2022-08-19T00:59:35;101300.19;;;19.31;100.00
57568;BME280;43403;51.948;5.922;2022-08-19T01:02:23;101302.22;;;19.29;100.00
57568;BME280;43403;51.948;5.922;2022-08-19T01:04:50;101296.63;;;19.24;100.00
57568;BME280;43403;51.948;5.922;2022-08-19T01:07:17;101296.81;;;19.22;100.00
57568;BME280;43403;51.948;5.922;2022-08-19T01:09:45;101305.19;;;19.19;100.00
57568;BME280;43403;51.948;5.922;2022-08-19T01:12:11;101300.06;;;19.17;100.00
57568;BME280;43403;51.948;5.922;2022-08-19T01:14:39;101298.03;;;19.20;100.00
57568;BME280;43403;51.948;5.922;2022-08-19T01:17:10;101306.19;;;19.18;100.00
57568;BME280;43403;51.948;5.922;2022-08-19T01:19:40;101302.28;;;19.14;100.00
57568;BME280;43403;51.948;5.922;2022-08-19T01:22:28;101297.13;;;19.12;100.00
57568;BME280;43403;51.948;5.922;2022-08-19T01:25:00;101309.00;;;19.10;100.00
57568;BME280;43403;51.948;5.922;2022-08-19T01:27:27;101303.66;;;19.10;100.00
57568;BME280;43403;51.948;5.922;2022-08-19T01:30:13;101311.06;;;19.14;100.00
57568;BME280;43403;51.948;5.922;2022-08-19T01:32:40;101312.09;;;19.13;100.00
57568;BME280;43403;51.948;5.922;2022-08-19T01:35:07;101309.88;;;19.17;100.00
57568;BME280;43403;51.948;5.922;2022-08-19T01:38:05;101300.28;;;19.23;100.00
57568;BME280;43403;51.948;5.922;2022-08-19T01:40:37;101301.31;;;19.22;100.00
57568;BME280;43403;51.948;5.922;2022-08-19T01:43:04;101297.84;;;19.21;100.00
57568;BME280;43403;51.948;5.922;2022-08-19T01:45:33;101303.38;;;19.26;100.00
57568;BME280;43403;51.948;5.922;2022-08-19T01:48:01;101300.91;;;19.25;100.00
57568;BME280;43403;51.948;5.922;2022-08-19T01:50:29;101311.63;;;19.31;100.00
57568;BME280;43403;51.948;5.922;2022-08-19T01:52:55;101314.28;;;19.31;100.00
57568;BME280;43403;51.948;5.922;2022-08-19T01:55:31;101313.69;;;19.36;100.00
57568;BME280;43403;51.948;5.922;2022-08-19T01:57:59;101309.44;;;19.42;100.00
57568;BME280;43403;51.948;5.922;2022-08-19T02:00:28;101310.53;;;19.47;100.00
57568;BME280;43403;51.948;5.922;2022-08-19T02:02:55;101308.84;;;19.46;100.00
57568;BME280;43403;51.948;5.922;2022-08-19T02:05:22;101315.47;;;19.50;100.00
57568;BME280;43403;51.948;5.922;2022-08-19T02:07:49;101318.94;;;19.51;100.00
57568;BME280;43403;51.948;5.922;2022-08-19T02:10:19;101316.94;;;19.60;100.00
57568;BME280;43403;51.948;5.922;2022-08-19T02:12:47;101317.78;;;19.60;100.00
57568;BME280;43403;51.948;5.922;2022-08-19T02:15:17;101323.34;;;19.65;100.00
57568;BME280;43403;51.948;5.922;2022-08-19T02:17:46;101319.75;;;19.73;100.00
57568;BME280;43403;51.948;5.922;2022-08-19T02:20:13;101315.22;;;19.73;100.00
57568;BME280;43403;51.948;5.922;2022-08-19T02:22:41;101316.88;;;19.74;100.00
57568;BME280;43403;51.948;5.922;2022-08-19T02:25:10;101315.03;;;19.75;100.00
57568;BME280;43403;51.948;5.922;2022-08-19T02:27:38;101323.22;;;19.73;100.00
57568;BME280;43403;51.948;5.922;2022-08-19T02:30:10;101322.78;;;19.70;100.00
57568;BME280;43403;51.948;5.922;2022-08-19T02:32:39;101320.88;;;19.64;100.00
57568;BME280;43403;51.948;5.922;2022-08-19T02:35:20;101323.13;;;19.60;100.00
57568;BME280;43403;51.948;5.922;2022-08-19T02:37:47;101326.34;;;19.55;100.00
57568;BME280;43403;51.948;5.922;2022-08-19T02:40:32;101328.56;;;19.52;100.00
57568;BME280;43403;51.948;5.922;2022-08-19T02:43:05;101326.53;;;19.54;100.00
57568;BME280;43403;51.948;5.922;2022-08-19T02:45:35;101323.03;;;19.53;100.00
57568;BME280;43403;51.948;5.922;2022-08-19T02:48:05;101320.78;;;19.50;100.00
57568;BME280;43403;51.948;5.922;2022-08-19T02:50:47;101326.13;;;19.50;100.00
57568;BME280;43403;51.948;5.922;2022-08-19T02:53:18;101313.34;;;19.39;100.00
57568;BME280;43403;51.948;5.922;2022-08-19T02:55:46;101321.31;;;19.39;100.00
57568;BME280;43403;51.948;5.922;2022-08-19T02:58:14;101309.59;;;19.33;100.00
57568;BME280;43403;51.948;5.922;2022-08-19T03:00:46;101317.75;;;19.32;100.00
57568;BME280;43403;51.948;5.922;2022-08-19T03:03:13;101318.72;;;19.24;100.00
57568;BME280;43403;51.948;5.922;2022-08-19T03:05:40;101312.13;;;19.20;100.00
57568;BME280;43403;51.948;5.922;2022-08-19T03:08:22;101313.50;;;19.09;100.00
57568;BME280;43403;51.948;5.922;2022-08-19T03:10:48;101317.53;;;19.05;100.00
57568;BME280;43403;51.948;5.922;2022-08-19T03:13:16;101319.38;;;19.05;100.00
57568;BME280;43403;51.948;5.922;2022-08-19T03:15:45;101318.09;;;19.01;100.00
57568;BME280;43403;51.948;5.922;2022-08-19T03:18:13;101320.13;;;18.99;100.00
57568;BME280;43403;51.948;5.922;2022-08-19T03:20:48;101320.94;;;18.99;100.00
57568;BME280;43403;51.948;5.922;2022-08-19T03:23:15;101320.88;;;18.92;100.00
57568;BME280;43403;51.948;5.922;2022-08-19T03:25:45;101318.81;;;18.88;100.00
57568;BME280;43403;51.948;5.922;2022-08-19T03:28:23;101325.06;;;18.80;100.00
57568;BME280;43403;51.948;5.922;2022-08-19T03:31:06;101329.53;;;18.80;100.00
57568;BME280;43403;51.948;5.922;2022-08-19T03:33:54;101328.00;;;18.70;100.00
57568;BME280;43403;51.948;5.922;2022-08-19T03:36:22;101334.41;;;18.76;100.00
57568;BME280;43403;51.948;5.922;2022-08-19T03:38:52;101335.22;;;18.76;100.00
57568;BME280;43403;51.948;5.922;2022-08-19T03:41:31;101322.28;;;18.73;100.00
57568;BME280;43403;51.948;5.922;2022-08-19T03:44:10;101322.22;;;18.67;100.00
57568;BME280;43403;51.948;5.922;2022-08-19T03:46:44;101329.28;;;18.60;100.00
57568;BME280;43403;51.948;5.922;2022-08-19T03:49:10;101326.81;;;18.58;100.00
57568;BME280;43403;51.948;5.922;2022-08-19T03:51:40;101331.13;;;18.59;100.00
57568;BME280;43403;51.948;5.922;2022-08-19T03:54:10;101336.63;;;18.57;100.00
57568;BME280;43403;51.948;5.922;2022-08-19T03:56:38;101329.84;;;18.55;100.00
57568;BME280;43403;51.948;5.922;2022-08-19T03:59:08;101328.19;;;18.54;100.00
57568;BME280;43403;51.948;5.922;2022-08-19T04:01:35;101333.72;;;18.52;100.00
57568;BME280;43403;51.948;5.922;2022-08-19T04:04:02;101326.28;;;18.48;100.00
57568;BME280;43403;51.948;5.922;2022-08-19T04:06:32;101321.63;;;18.50;100.00
57568;BME280;43403;51.948;5.922;2022-08-19T04:09:02;101324.84;;;18.45;100.00
57568;BME280;43403;51.948;5.922;2022-08-19T04:11:50;101332.41;;;18.48;100.00
57568;BME280;43403;51.948;5.922;2022-08-19T04:14:22;101325.47;;;18.47;100.00
57568;BME280;43403;51.948;5.922;2022-08-19T04:16:50;101323.81;;;18.46;100.00
57568;BME280;43403;51.948;5.922;2022-08-19T04:19:18;101325.66;;;18.46;100.00
57568;BME280;43403;51.948;5.922;2022-08-19T04:21:46;101321.38;;;18.45;100.00
57568;BME280;43403;51.948;5.922;2022-08-19T04:24:14;101324.19;;;18.43;100.00
57568;BME280;43403;51.948;5.922;2022-08-19T04:26:40;101314.16;;;18.38;100.00
57568;BME280;43403;51.948;5.922;2022-08-19T04:29:11;101302.03;;;18.36;100.00
57568;BME280;43403;51.948;5.922;2022-08-19T04:31:38;101307.94;;;18.31;100.00
57568;BME280;43403;51.948;5.922;2022-08-19T04:34:07;101301.97;;;18.29;100.00
57568;BME280;43403;51.948;5.922;2022-08-19T04:36:35;101313.59;;;18.28;100.00
57568;BME280;43403;51.948;5.922;2022-08-19T04:39:05;101294.75;;;18.23;100.00
57568;BME280;43403;51.948;5.922;2022-08-19T04:41:32;101304.81;;;18.13;100.00
57568;BME280;43403;51.948;5.922;2022-08-19T04:44:18;101297.22;;;18.10;100.00
57568;BME280;43403;51.948;5.922;2022-08-19T04:46:46;101304.81;;;18.13;100.00
57568;BME280;43403;51.948;5.922;2022-08-19T04:49:19;101297.22;;;18.10;100.00
57568;BME280;43403;51.948;5.922;2022-08-19T04:51:48;101300.63;;;18.04;100.00
57568;BME280;43403;51.948;5.922;2022-08-19T04:54:17;101296.31;;;18.03;100.00
57568;BME280;43403;51.948;5.922;2022-08-19T04:57:05;101301.16;;;17.99;100.00
57568;BME280;43403;51.948;5.922;2022-08-19T04:59:33;101310.50;;;17.95;100.00
57568;BME280;43403;51.948;5.922;2022-08-19T05:02:00;101306.56;;;17.91;100.00
57568;BME280;43403;51.948;5.922;2022-08-19T05:04:26;101307.59;;;17.90;100.00
57568;BME280;43403;51.948;5.922;2022-08-19T05:06:57;101312.91;;;17.90;100.00
57568;BME280;43403;51.948;5.922;2022-08-19T05:09:27;101310.25;;;17.90;100.00
57568;BME280;43403;51.948;5.922;2022-08-19T05:11:58;101311.63;;;17.86;100.00
57568;BME280;43403;51.948;5.922;2022-08-19T05:14:24;101315.56;;;17.90;100.00
57568;BME280;43403;51.948;5.922;2022-08-19T05:16:51;101306.38;;;17.92;100.00
57568;BME280;43403;51.948;5.922;2022-08-19T05:19:37;101320.75;;;17.98;100.00
57568;BME280;43403;51.948;5.922;2022-08-19T05:22:22;101317.94;;;18.00;100.00
57568;BME280;43403;51.948;5.922;2022-08-19T05:25:13;101318.47;;;18.10;100.00
57568;BME280;43403;51.948;5.922;2022-08-19T05:27:41;101329.56;;;18.13;100.00
57568;BME280;43403;51.948;5.922;2022-08-19T05:30:08;101316.91;;;18.15;100.00
57568;BME280;43403;51.948;5.922;2022-08-19T05:32:35;101319.00;;;18.20;100.00
57568;BME280;43403;51.948;5.922;2022-08-19T05:35:03;101321.75;;;18.27;100.00
57568;BME280;43403;51.948;5.922;2022-08-19T05:37:30;101316.88;;;18.30;100.00
57568;BME280;43403;51.948;5.922;2022-08-19T05:39:56;101320.19;;;18.32;100.00
57568;BME280;43403;51.948;5.922;2022-08-19T05:42:23;101321.44;;;18.36;100.00
57568;BME280;43403;51.948;5.922;2022-08-19T05:44:50;101327.69;;;18.44;100.00
57568;BME280;43403;51.948;5.922;2022-08-19T05:47:17;101330.78;;;18.47;100.00
57568;BME280;43403;51.948;5.922;2022-08-19T05:49:46;101342.50;;;18.53;100.00
57568;BME280;43403;51.948;5.922;2022-08-19T05:52:14;101330.50;;;18.57;100.00
57568;BME280;43403;51.948;5.922;2022-08-19T05:54:45;101336.25;;;18.61;100.00
57568;BME280;43403;51.948;5.922;2022-08-19T05:57:20;101330.78;;;18.62;100.00
57568;BME280;43403;51.948;5.922;2022-08-19T05:59:46;101330.56;;;18.64;100.00
57568;BME280;43403;51.948;5.922;2022-08-19T06:02:18;101326.97;;;18.71;100.00
57568;BME280;43403;51.948;5.922;2022-08-19T06:04:44;101337.78;;;18.70;100.00
57568;BME280;43403;51.948;5.922;2022-08-19T06:07:11;101336.31;;;18.67;100.00
57568;BME280;43403;51.948;5.922;2022-08-19T06:09:39;101333.75;;;18.74;100.00
57568;BME280;43403;51.948;5.922;2022-08-19T06:12:06;101336.50;;;18.66;100.00
57568;BME280;43403;51.948;5.922;2022-08-19T06:14:35;101322.59;;;18.64;100.00
57568;BME280;43403;51.948;5.922;2022-08-19T06:17:07;101331.94;;;18.60;100.00
57568;BME280;43403;51.948;5.922;2022-08-19T06:19:34;101334.34;;;18.54;100.00
57568;BME280;43403;51.948;5.922;2022-08-19T06:22:06;101334.78;;;18.58;100.00
57568;BME280;43403;51.948;5.922;2022-08-19T06:24:34;101338.97;;;18.67;100.00
57568;BME280;43403;51.948;5.922;2022-08-19T06:27:02;101335.97;;;18.70;100.00
57568;BME280;43403;51.948;5.922;2022-08-19T06:29:29;101339.72;;;18.76;100.00
57568;BME280;43403;51.948;5.922;2022-08-19T06:31:58;101342.50;;;18.89;100.00
57568;BME280;43403;51.948;5.922;2022-08-19T06:34:26;101346.25;;;18.95;100.00
57568;BME280;43403;51.948;5.922;2022-08-19T06:36:55;101340.81;;;19.03;100.00
57568;BME280;43403;51.948;5.922;2022-08-19T06:39:25;101344.78;;;19.07;100.00
57568;BME280;43403;51.948;5.922;2022-08-19T06:41:55;101340.94;;;19.16;100.00
57568;BME280;43403;51.948;5.922;2022-08-19T06:44:26;101339.38;;;19.22;100.00
57568;BME280;43403;51.948;5.922;2022-08-19T06:46:55;101345.56;;;19.29;100.00
57568;BME280;43403;51.948;5.922;2022-08-19T06:49:23;101341.38;;;19.42;100.00
57568;BME280;43403;51.948;5.922;2022-08-19T06:51:50;101347.41;;;19.50;100.00
57568;BME280;43403;51.948;5.922;2022-08-19T06:54:18;101348.69;;;19.61;100.00
57568;BME280;43403;51.948;5.922;2022-08-19T06:56:46;101350.56;;;19.67;100.00
57568;BME280;43403;51.948;5.922;2022-08-19T06:59:16;101357.81;;;19.73;100.00
57568;BME280;43403;51.948;5.922;2022-08-19T07:01:47;101354.97;;;19.75;100.00
57568;BME280;43403;51.948;5.922;2022-08-19T07:04:17;101352.31;;;19.75;100.00
57568;BME280;43403;51.948;5.922;2022-08-19T07:06:44;101347.59;;;19.77;100.00
57568;BME280;43403;51.948;5.922;2022-08-19T07:09:20;101344.75;;;19.79;100.00
57568;BME280;43403;51.948;5.922;2022-08-19T07:11:48;101345.81;;;19.84;100.00
57568;BME280;43403;51.948;5.922;2022-08-19T07:14:17;101351.19;;;19.91;100.00
57568;BME280;43403;51.948;5.922;2022-08-19T07:16:47;101355.97;;;20.02;100.00
57568;BME280;43403;51.948;5.922;2022-08-19T07:19:14;101363.75;;;20.04;100.00
57568;BME280;43403;51.948;5.922;2022-08-19T07:21:45;101368.28;;;20.03;100.00
57568;BME280;43403;51.948;5.922;2022-08-19T07:24:12;101368.94;;;20.12;100.00
57568;BME280;43403;51.948;5.922;2022-08-19T07:26:41;101363.00;;;20.17;100.00
57568;BME280;43403;51.948;5.922;2022-08-19T07:29:09;101373.28;;;20.20;100.00
57568;BME280;43403;51.948;5.922;2022-08-19T07:31:36;101374.53;;;20.24;100.00
57568;BME280;43403;51.948;5.922;2022-08-19T07:34:06;101376.38;;;20.30;100.00
57568;BME280;43403;51.948;5.922;2022-08-19T07:36:38;101370.44;;;20.28;100.00
57568;BME280;43403;51.948;5.922;2022-08-19T07:39:18;101378.25;;;20.36;100.00
57568;BME280;43403;51.948;5.922;2022-08-19T07:41:45;101380.34;;;20.41;100.00
57568;BME280;43403;51.948;5.922;2022-08-19T07:44:13;101378.50;;;20.41;100.00
57568;BME280;43403;51.948;5.922;2022-08-19T07:46:42;101388.56;;;20.46;100.00
57568;BME280;43403;51.948;5.922;2022-08-19T07:49:13;101381.00;;;20.56;100.00
57568;BME280;43403;51.948;5.922;2022-08-19T07:51:50;101390.50;;;20.65;100.00
57568;BME280;43403;51.948;5.922;2022-08-19T07:54:19;101385.69;;;20.47;100.00
57568;BME280;43403;51.948;5.922;2022-08-19T07:56:46;101394.31;;;20.43;100.00
57568;BME280;43403;51.948;5.922;2022-08-19T07:59:12;101397.38;;;20.46;100.00
57568;BME280;43403;51.948;5.922;2022-08-19T08:01:39;101398.22;;;20.53;100.00
57568;BME280;43403;51.948;5.922;2022-08-19T08:04:07;101395.63;;;20.60;100.00
57568;BME280;43403;51.948;5.922;2022-08-19T08:06:53;101391.38;;;20.72;100.00
57568;BME280;43403;51.948;5.922;2022-08-19T08:09:40;101400.66;;;20.90;100.00
57568;BME280;43403;51.948;5.922;2022-08-19T08:12:17;101395.09;;;20.78;100.00
57568;BME280;43403;51.948;5.922;2022-08-19T08:15:03;101387.50;;;20.82;100.00
57568;BME280;43403;51.948;5.922;2022-08-19T08:17:34;101389.16;;;20.89;100.00
57568;BME280;43403;51.948;5.922;2022-08-19T08:20:16;101396.00;;;21.05;100.00
57568;BME280;43403;51.948;5.922;2022-08-19T08:22:44;101394.81;;;21.35;100.00
57568;BME280;43403;51.948;5.922;2022-08-19T08:25:30;101408.81;;;21.57;100.00
57568;BME280;43403;51.948;5.922;2022-08-19T08:27:59;101407.56;;;21.72;100.00
57568;BME280;43403;51.948;5.922;2022-08-19T08:30:28;101410.00;;;21.87;100.00
57568;BME280;43403;51.948;5.922;2022-08-19T08:32:58;101417.56;;;22.24;100.00
57568;BME280;43403;51.948;5.922;2022-08-19T08:35:25;101411.72;;;22.54;100.00
57568;BME280;43403;51.948;5.922;2022-08-19T08:37:53;101411.22;;;22.77;100.00
57568;BME280;43403;51.948;5.922;2022-08-19T08:42:58;101410.50;;;23.01;100.00
57568;BME280;43403;51.948;5.922;2022-08-19T08:45:36;101407.72;;;23.21;100.00
57568;BME280;43403;51.948;5.922;2022-08-19T08:48:18;101409.88;;;23.38;100.00
57568;BME280;43403;51.948;5.922;2022-08-19T08:50:50;101403.88;;;23.42;100.00
57568;BME280;43403;51.948;5.922;2022-08-19T08:53:20;101412.16;;;23.59;100.00
57568;BME280;43403;51.948;5.922;2022-08-19T08:55:57;101407.84;;;23.83;100.00
57568;BME280;43403;51.948;5.922;2022-08-19T08:58:51;101408.63;;;23.91;100.00
57568;BME280;43403;51.948;5.922;2022-08-19T09:01:20;101410.63;;;23.95;100.00
57568;BME280;43403;51.948;5.922;2022-08-19T09:03:47;101409.53;;;24.03;100.00
57568;BME280;43403;51.948;5.922;2022-08-19T09:06:32;101408.34;;;24.36;98.19
57568;BME280;43403;51.948;5.922;2022-08-19T09:12:17;101405.72;;;24.54;94.39
57568;BME280;43403;51.948;5.922;2022-08-19T09:14:55;101402.72;;;24.62;95.66
57568;BME280;43403;51.948;5.922;2022-08-19T09:17:27;101400.22;;;24.79;95.41
57568;BME280;43403;51.948;5.922;2022-08-19T09:20:32;101406.63;;;24.78;96.08
57568;BME280;43403;51.948;5.922;2022-08-19T09:22:51;101404.00;;;24.90;95.28
57568;BME280;43403;51.948;5.922;2022-08-19T09:25:20;101401.31;;;24.90;93.45
57568;BME280;43403;51.948;5.922;2022-08-19T09:27:54;101403.47;;;25.12;94.14
57568;BME280;43403;51.948;5.922;2022-08-19T09:30:32;101404.44;;;25.17;90.80
57568;BME280;43403;51.948;5.922;2022-08-19T09:32:59;101408.63;;;25.13;92.74
57568;BME280;43403;51.948;5.922;2022-08-19T09:35:28;101402.94;;;24.91;93.76
57568;BME280;43403;51.948;5.922;2022-08-19T09:38:15;101404.03;;;24.72;94.93
57568;BME280;43403;51.948;5.922;2022-08-19T09:40:41;101410.13;;;24.79;96.63
57568;BME280;43403;51.948;5.922;2022-08-19T09:43:08;101404.72;;;24.97;100.00
57568;BME280;43403;51.948;5.922;2022-08-19T09:45:39;101413.03;;;25.08;100.00
57568;BME280;43403;51.948;5.922;2022-08-19T09:48:06;101413.66;;;25.21;100.00
57568;BME280;43403;51.948;5.922;2022-08-19T09:50:34;101418.25;;;25.02;100.00
57568;BME280;43403;51.948;5.922;2022-08-19T09:53:02;101416.84;;;25.30;100.00
57568;BME280;43403;51.948;5.922;2022-08-19T09:55:32;101422.38;;;25.35;99.36
57568;BME280;43403;51.948;5.922;2022-08-19T09:58:00;101430.44;;;25.17;97.22
57568;BME280;43403;51.948;5.922;2022-08-19T10:00:26;101423.38;;;25.22;96.91
57568;BME280;43403;51.948;5.922;2022-08-19T10:02:53;101429.47;;;25.30;97.44
57568;BME280;43403;51.948;5.922;2022-08-19T10:05:19;101428.75;;;25.34;96.97
57568;BME280;43403;51.948;5.922;2022-08-19T10:08:08;101430.88;;;25.32;96.97
57568;BME280;43403;51.948;5.922;2022-08-19T10:10:42;101435.00;;;25.47;92.69
57568;BME280;43403;51.948;5.922;2022-08-19T10:13:14;101433.56;;;25.44;91.57
57568;BME280;43403;51.948;5.922;2022-08-19T10:15:41;101426.81;;;25.53;92.37
57568;BME280;43403;51.948;5.922;2022-08-19T10:18:14;101437.69;;;25.58;93.68
57568;BME280;43403;51.948;5.922;2022-08-19T10:20:42;101437.56;;;25.53;90.39
57568;BME280;43403;51.948;5.922;2022-08-19T10:23:09;101429.06;;;25.68;90.86
57568;BME280;43403;51.948;5.922;2022-08-19T10:25:35;101427.66;;;25.65;91.30
57568;BME280;43403;51.948;5.922;2022-08-19T10:28:04;101429.84;;;25.45;89.07
57568;BME280;43403;51.948;5.922;2022-08-19T10:30:36;101429.38;;;25.60;87.16
57568;BME280;43403;51.948;5.922;2022-08-19T10:33:03;101433.50;;;25.62;87.22
57568;BME280;43403;51.948;5.922;2022-08-19T10:35:36;101426.59;;;25.55;88.07
57568;BME280;43403;51.948;5.922;2022-08-19T10:38:22;101425.44;;;25.62;85.47
57568;BME280;43403;51.948;5.922;2022-08-19T10:41:05;101421.94;;;25.62;83.06
57568;BME280;43403;51.948;5.922;2022-08-19T10:43:32;101413.44;;;26.00;84.38
57568;BME280;43403;51.948;5.922;2022-08-19T10:46:04;101422.41;;;25.82;82.31
57568;BME280;43403;51.948;5.922;2022-08-19T10:48:40;101418.19;;;25.75;81.94
57568;BME280;43403;51.948;5.922;2022-08-19T10:51:06;101414.00;;;25.79;83.64
57568;BME280;43403;51.948;5.922;2022-08-19T10:53:53;101418.91;;;25.70;80.52
57568;BME280;43403;51.948;5.922;2022-08-19T10:56:19;101421.03;;;26.03;82.36
57568;BME280;43403;51.948;5.922;2022-08-19T10:59:04;101416.25;;;26.06;80.90
57568;BME280;43403;51.948;5.922;2022-08-19T11:01:32;101410.34;;;26.32;79.36
57568;BME280;43403;51.948;5.922;2022-08-19T11:04:01;101410.41;;;26.49;80.58
57568;BME280;43403;51.948;5.922;2022-08-19T11:06:29;101409.94;;;26.64;81.04
57568;BME280;43403;51.948;5.922;2022-08-19T11:08:57;101408.53;;;26.61;78.71
57568;BME280;43403;51.948;5.922;2022-08-19T11:11:26;101409.13;;;26.52;78.52
57568;BME280;43403;51.948;5.922;2022-08-19T11:13:54;101411.28;;;26.78;80.46
57568;BME280;43403;51.948;5.922;2022-08-19T11:16:25;101412.69;;;26.81;77.07
57568;BME280;43403;51.948;5.922;2022-08-19T11:18:54;101404.47;;;26.88;79.72
57568;BME280;43403;51.948;5.922;2022-08-19T11:21:30;101407.84;;;26.54;79.00
57568;BME280;43403;51.948;5.922;2022-08-19T11:24:06;101396.81;;;26.68;78.57
57568;BME280;43403;51.948;5.922;2022-08-19T11:26:34;101408.06;;;26.65;78.67
57568;BME280;43403;51.948;5.922;2022-08-19T11:29:03;101401.44;;;26.84;77.08
57568;BME280;43403;51.948;5.922;2022-08-19T11:31:32;101398.06;;;27.22;78.01
57568;BME280;43403;51.948;5.922;2022-08-19T11:34:02;101397.88;;;27.41;73.53
57568;BME280;43403;51.948;5.922;2022-08-19T11:36:29;101400.78;;;27.39;73.94
57568;BME280;43403;51.948;5.922;2022-08-19T11:38:57;101404.88;;;27.59;75.14
57568;BME280;43403;51.948;5.922;2022-08-19T11:41:24;101401.59;;;27.74;73.96
57568;BME280;43403;51.948;5.922;2022-08-19T11:43:52;101391.31;;;27.71;74.25
57568;BME280;43403;51.948;5.922;2022-08-19T11:46:21;101388.94;;;27.74;73.44
57568;BME280;43403;51.948;5.922;2022-08-19T11:48:48;101389.06;;;27.85;73.80
57568;BME280;43403;51.948;5.922;2022-08-19T11:51:19;101389.19;;;28.12;74.15
57568;BME280;43403;51.948;5.922;2022-08-19T11:53:46;101390.78;;;28.08;73.55
57568;BME280;43403;51.948;5.922;2022-08-19T11:56:12;101389.19;;;28.34;73.23
57568;BME280;43403;51.948;5.922;2022-08-19T11:58:39;101387.06;;;28.14;72.34
57568;BME280;43403;51.948;5.922;2022-08-19T12:01:10;101397.03;;;28.13;72.48
57568;BME280;43403;51.948;5.922;2022-08-19T12:03:38;101386.38;;;28.24;71.87
57568;BME280;43403;51.948;5.922;2022-08-19T12:06:11;101383.00;;;28.33;70.57
57568;BME280;43403;51.948;5.922;2022-08-19T12:08:41;101379.41;;;28.28;71.00
57568;BME280;43403;51.948;5.922;2022-08-19T12:11:10;101380.19;;;28.23;71.29
57568;BME280;43403;51.948;5.922;2022-08-19T12:13:38;101384.44;;;28.63;71.75
57568;BME280;43403;51.948;5.922;2022-08-19T12:16:13;101390.94;;;28.67;70.67
57568;BME280;43403;51.948;5.922;2022-08-19T12:18:42;101392.03;;;28.22;70.77
57568;BME280;43403;51.948;5.922;2022-08-19T12:21:24;101382.22;;;28.38;73.26
57568;BME280;43403;51.948;5.922;2022-08-19T12:23:51;101377.84;;;28.32;72.16
57568;BME280;43403;51.948;5.922;2022-08-19T12:26:21;101377.66;;;28.61;71.84
57568;BME280;43403;51.948;5.922;2022-08-19T12:28:48;101387.22;;;28.73;72.02
57568;BME280;43403;51.948;5.922;2022-08-19T12:31:14;101388.81;;;29.24;71.69
57568;BME280;43403;51.948;5.922;2022-08-19T12:33:41;101384.13;;;29.14;70.00
57568;BME280;43403;51.948;5.922;2022-08-19T12:36:11;101383.53;;;28.79;70.68
57568;BME280;43403;51.948;5.922;2022-08-19T12:38:38;101380.06;;;28.84;71.10
57568;BME280;43403;51.948;5.922;2022-08-19T12:41:05;101383.22;;;28.76;71.48
57568;BME280;43403;51.948;5.922;2022-08-19T12:43:34;101375.44;;;28.79;72.99
57568;BME280;43403;51.948;5.922;2022-08-19T12:46:02;101372.34;;;28.98;72.07
57568;BME280;43403;51.948;5.922;2022-08-19T12:48:31;101372.13;;;28.72;70.68
57568;BME280;43403;51.948;5.922;2022-08-19T12:51:06;101374.75;;;28.94;72.48
57568;BME280;43403;51.948;5.922;2022-08-19T12:53:32;101375.53;;;28.90;71.85
57568;BME280;43403;51.948;5.922;2022-08-19T12:55:59;101365.19;;;28.82;70.32
57568;BME280;43403;51.948;5.922;2022-08-19T12:58:26;101365.44;;;28.80;71.49
57568;BME280;43403;51.948;5.922;2022-08-19T13:00:53;101363.13;;;29.21;72.94
57568;BME280;43403;51.948;5.922;2022-08-19T13:03:20;101362.03;;;29.60;72.63
57568;BME280;43403;51.948;5.922;2022-08-19T13:05:50;101356.53;;;29.44;68.87
57568;BME280;43403;51.948;5.922;2022-08-19T13:08:16;101351.13;;;29.87;70.76
57568;BME280;43403;51.948;5.922;2022-08-19T13:10:43;101347.34;;;29.88;67.40
57568;BME280;43403;51.948;5.922;2022-08-19T13:13:10;101343.13;;;30.07;69.65
57568;BME280;43403;51.948;5.922;2022-08-19T13:15:38;101346.50;;;29.82;67.39